Czestochowa, Poland
Current Conditions -  °F | °C
As of 3:30 AM on Saturday 25 Oct 2014 (Local Time) from EPKT Reporting Station
Broken Clouds Broken Clouds  
Wind Chill: 26°   Ceiling: 1300
Heat Index: 34°   Visibility: 6mi
Dew Point: 28°   Wind: 9mph
Humidity: 81%   Direction: 110°ESE
Pressure: 30.24"   Gusts: NA
Location:  50.81°N, 19.13°E
Report Text: EPKT 250130Z 11008KT 080V150 9999 BKN013 01/M02 Q1024
Loading
Personal Weather Stations






























Interactive Weather Map
Tropical Storm Tracking
New forecast layout! Learn more

10-Day Weather Forecast

Advertisements
Track Severe Weather on mobile